Time;durP1;ratioP1;P1;durP2;ratioP2;P2;SDS_P1;SDS_P2;PMS_P1;PMS_P2;Temp;Humidity;BMP_temperature;BMP_pressure;BME280_temperature;BME280_humidity;BME280_pressure;Samples;Min_cycle;Max_cycle;Signal;HPM_P1;HPM_P2
2022/02/07 09:39:17;;;;;;;32.80;4.15;;;;;;;;;;6241134;22;20050;-92
2022/02/07 10:06:32;;;;;;;17.25;3.63;;;;;;;;;;6278801;22;20008;-95
2022/02/07 10:09:49;;;;;;;17.25;4.75;;;;;;;;;;6294192;22;20008;-92
2022/02/07 10:13:00;;;;;;;21.02;3.42;;;;;;;;;;6293028;22;20003;-93
2022/02/07 10:15:53;;;;;;;18.38;3.65;;;;;;;;;;6298016;22;20019;-96
2022/02/07 10:18:54;;;;;;;13.00;2.47;;;;;;;;;;6282285;22;20004;-96
2022/02/07 10:43:21;;;;;;;24.48;3.95;;;;;;;;;;6306878;22;20004;-95
2022/02/07 10:46:06;;;;;;;23.00;4.18;;;;;;;;;;6284155;22;20007;-94
2022/02/07 10:49:02;;;;;;;39.28;5.07;;;;;;;;;;6284282;22;20051;-94
2022/02/07 10:51:47;;;;;;;26.60;4.63;;;;;;;;;;6284033;22;20022;-96
2022/02/07 10:54:42;;;;;;;35.03;4.80;;;;;;;;;;6282685;22;20000;-95
2022/02/07 10:57:54;;;;;;;;;;;;;;;;;;;;;
2022/02/07 11:01:06;;;;;;;;;;;;;;;;;;;;;
2022/02/07 11:04:16;;;;;;;22.10;3.65;;;;;;;;;;6305069;22;20000;-95
2022/02/07 11:07:35;;;;;;;12.77;1.67;;;;;;;;;;6307195;22;20023;-93
2022/02/07 11:14:40;;;;;;;18.05;2.85;;;;;;;;;;6155352;23;20006;-94
2022/02/07 11:24:18;;;;;;;23.17;4.25;;;;;;;;;;6087049;23;20006;-94
2022/02/07 11:27:19;;;;;;;19.70;3.80;;;;;;;;;;6214634;23;20012;-94
2022/02/07 11:30:00;;;;;;;25.45;4.07;;;;;;;;;;6194599;22;20019;-94
2022/02/07 11:32:44;;;;;;;22.48;3.17;;;;;;;;;;6284213;22;20051;-95
2022/02/07 11:35:45;;;;;;;15.75;2.50;;;;;;;;;;6284113;22;19999;-95
2022/02/07 11:38:29;;;;;;;11.13;1.70;;;;;;;;;;6283955;22;20003;-94
2022/02/07 11:41:10;;;;;;;12.15;2.38;;;;;;;;;;6283488;22;20014;-94
2022/02/07 11:43:51;;;;;;;11.18;1.92;;;;;;;;;;6283764;22;20011;-95
2022/02/07 11:46:55;;;;;;;17.55;2.30;;;;;;;;;;6283612;22;20003;-95
2022/02/07 11:50:23;;;;;;;16.30;2.45;;;;;;;;;;6303632;22;20007;-94
2022/02/07 11:53:53;;;;;;;21.07;3.30;;;;;;;;;;6300439;22;20030;-95
2022/02/07 11:57:14;;;;;;;17.73;2.60;;;;;;;;;;6287941;22;20023;-94
2022/02/07 12:00:23;;;;;;;16.85;2.58;;;;;;;;;;6305954;22;20004;-94
2022/02/07 12:03:08;;;;;;;18.08;2.78;;;;;;;;;;6306594;22;20034;-95
2022/02/07 12:05:52;;;;;;;20.50;3.20;;;;;;;;;;6281906;22;20011;-95
2022/02/07 12:08:37;;;;;;;23.05;3.50;;;;;;;;;;6283185;22;20004;-95
2022/02/07 12:11:19;;;;;;;20.77;4.20;;;;;;;;;;6305674;22;20011;-95
2022/02/07 12:14:19;;;;;;;20.80;3.30;;;;;;;;;;6283063;22;20052;-95
2022/02/07 12:17:01;;;;;;;21.13;3.42;;;;;;;;;;6280790;22;20011;-96
2022/02/07 12:19:41;;;;;;;25.73;3.88;;;;;;;;;;6283382;22;20003;-94
2022/02/07 12:22:26;;;;;;;24.95;4.03;;;;;;;;;;6283321;22;20008;-94
2022/02/07 12:25:11;;;;;;;21.50;3.83;;;;;;;;;;6278223;22;20063;-93
2022/02/07 12:27:53;;;;;;;20.38;4.28;;;;;;;;;;6283289;22;20007;-93
2022/02/07 12:33:35;;;;;;;29.55;4.88;;;;;;;;;;6306037;22;20022;-95
2022/02/07 12:36:15;;;;;;;28.15;3.78;;;;;;;;;;6283889;22;20004;-95
2022/02/07 12:38:57;;;;;;;25.02;3.85;;;;;;;;;;6283610;22;20106;-95
2022/02/07 12:41:40;;;;;;;21.65;3.20;;;;;;;;;;6276664;22;20000;-94
2022/02/07 12:44:26;;;;;;;17.60;3.42;;;;;;;;;;6282740;22;20000;-94
2022/02/07 12:47:05;;;;;;;14.43;3.05;;;;;;;;;;6282194;22;20080;-94
2022/02/07 12:49:50;;;;;;;12.75;1.92;;;;;;;;;;6282094;22;20003;-94
2022/02/07 12:52:34;;;;;;;14.13;2.58;;;;;;;;;;6282627;22;20019;-95
2022/02/07 12:55:16;;;;;;;16.15;2.30;;;;;;;;;;6282447;22;20007;-96
2022/02/07 12:58:04;;;;;;;9.75;1.98;;;;;;;;;;6280528;22;20000;-96
2022/02/07 13:00:49;;;;;;;19.73;2.63;;;;;;;;;;6305905;22;20047;-95
2022/02/07 13:03:38;;;;;;;16.05;2.33;;;;;;;;;;6282550;22;20008;-94
2022/02/07 13:06:26;;;;;;;14.65;2.60;;;;;;;;;;6222793;23;20009;-94
2022/02/07 13:09:16;;;;;;;17.80;2.75;;;;;;;;;;6221818;23;20043;-94
2022/02/07 13:12:02;;;;;;;14.25;2.70;;;;;;;;;;6221449;23;20011;-95
2022/02/07 13:14:36;;;;;;;12.55;2.97;;;;;;;;;;6220382;23;20016;-94
2022/02/07 13:17:24;;;;;;;20.58;2.85;;;;;;;;;;6243261;23;20035;-94
2022/02/07 13:19:54;;;;;;;19.65;2.85;;;;;;;;;;6219707;23;20028;-94
2022/02/07 13:22:37;;;;;;;17.33;2.00;;;;;;;;;;6220806;23;20068;-93
2022/02/07 13:25:18;;;;;;;18.30;3.22;;;;;;;;;;6219818;23;20028;-94
2022/02/07 13:31:09;;;;;;;18.85;3.10;;;;;;;;;;6270188;22;20010;-92
2022/02/07 13:33:51;;;;;;;20.77;2.67;;;;;;;;;;6280682;22;20095;-93
2022/02/07 13:43:31;;;;;;;22.10;2.72;;;;;;;;;;6304974;22;20002;-94
2022/02/07 13:56:34;;;;;;;28.58;3.40;;;;;;;;;;6304830;22;20007;-94
2022/02/07 13:59:16;;;;;;;26.35;2.88;;;;;;;;;;6281222;22;20007;-94
2022/02/07 14:02:03;;;;;;;17.52;3.03;;;;;;;;;;6279438;22;20100;-93
2022/02/07 14:04:50;;;;;;;19.48;3.28;;;;;;;;;;6279175;22;20014;-94
2022/02/07 14:07:22;;;;;;;21.95;3.70;;;;;;;;;;6279504;22;20008;-95
2022/02/07 15:01:21;;;;;;;25.35;3.35;;;;;;;;;;6245300;22;20023;-94
2022/02/07 15:03:54;;;;;;;26.10;3.08;;;;;;;;;;6219681;23;20028;-94
2022/02/07 15:06:22;;;;;;;20.10;3.15;;;;;;;;;;6218105;23;20017;-93
2022/02/07 15:26:06;;;;;;;21.27;3.38;;;;;;;;;;6245211;23;20003;-94
2022/02/07 15:28:44;;;;;;;23.15;4.38;;;;;;;;;;6220806;23;20016;-93
2022/02/07 15:48:43;;;;;;;20.42;3.20;;;;;;;;;;6244632;23;20040;-93
2022/02/07 15:51:24;;;;;;;17.85;3.35;;;;;;;;;;6215682;23;20047;-94
2022/02/07 15:54:38;;;;;;;22.88;3.00;;;;;;;;;;6219530;23;20032;-93
2022/02/07 15:57:19;;;;;;;23.38;3.20;;;;;;;;;;6219281;23;20016;-93
2022/02/07 15:59:48;;;;;;;21.48;3.45;;;;;;;;;;6228903;22;20012;-93
2022/02/07 16:02:54;;;;;;;18.55;2.58;;;;;;;;;;6250825;22;20042;-94
2022/02/07 16:05:44;;;;;;;25.23;3.75;;;;;;;;;;6248768;22;20019;-94
2022/02/07 16:08:13;;;;;;;18.88;4.10;;;;;;;;;;6249045;22;20020;-95
2022/02/07 16:10:54;;;;;;;29.00;3.53;;;;;;;;;;6250570;22;20021;-93
2022/02/07 16:16:14;;;;;;;20.33;4.22;;;;;;;;;;6247496;22;20017;-93
2022/02/07 16:18:42;;;;;;;23.42;2.90;;;;;;;;;;6248534;22;20012;-94
2022/02/07 16:24:45;;;;;;;25.05;3.95;;;;;;;;;;6274891;22;20015;-94
2022/02/07 16:37:34;;;;;;;29.40;3.67;;;;;;;;;;6242000;22;20008;-94
2022/02/07 16:40:10;;;;;;;21.17;2.55;;;;;;;;;;6220493;23;20008;-93
2022/02/07 16:42:54;;;;;;;20.88;3.05;;;;;;;;;;6223007;23;20004;-94
2022/02/07 16:45:38;;;;;;;19.23;3.17;;;;;;;;;;6221648;23;20008;-94
2022/02/07 16:48:19;;;;;;;31.02;3.85;;;;;;;;;;6222639;23;20007;-94
2022/02/07 16:50:59;;;;;;;15.80;2.80;;;;;;;;;;6222705;23;20021;-94
2022/02/07 16:53:35;;;;;;;;;;;;;;;;;;6223281;23;20020;-93
2022/02/07 16:56:17;;;;;;;28.23;4.00;;;;;;;;;;6221761;23;19896;-93
2022/02/07 16:58:50;;;;;;;24.35;3.33;;;;;;;;;;6221288;23;20013;-93
2022/02/07 17:01:20;;;;;;;25.55;3.10;;;;;;;;;;6220908;23;20064;-93
2022/02/07 17:04:02;;;;;;;31.35;3.72;;;;;;;;;;6222158;23;20057;-93
2022/02/07 17:06:42;;;;;;;24.08;2.55;;;;;;;;;;6215423;23;20008;-94
2022/02/07 17:09:23;;;;;;;26.67;3.25;;;;;;;;;;6222284;23;20009;-92
2022/02/07 17:12:11;;;;;;;29.27;3.30;;;;;;;;;;6222664;23;20001;-93
2022/02/07 17:14:51;;;;;;;24.92;4.22;;;;;;;;;;6222288;23;20000;-92
2022/02/07 17:17:33;;;;;;;27.65;2.97;;;;;;;;;;6240796;23;20009;-93
2022/02/07 17:20:16;;;;;;;21.15;3.38;;;;;;;;;;6218437;23;20077;-94
2022/02/07 17:22:57;;;;;;;17.63;2.85;;;;;;;;;;6200518;23;20012;-93
2022/02/07 17:25:37;;;;;;;15.90;3.40;;;;;;;;;;6222006;23;20019;-93
2022/02/07 17:28:18;;;;;;;25.77;3.03;;;;;;;;;;6221582;23;20008;-92
2022/02/07 17:30:54;;;;;;;31.27;3.75;;;;;;;;;;6221796;23;20016;-93
2022/02/07 17:33:35;;;;;;;31.73;2.67;;;;;;;;;;6222035;23;20015;-94
2022/02/07 17:36:15;;;;;;;22.92;3.13;;;;;;;;;;6222348;23;20007;-94
2022/02/07 17:38:44;;;;;;;31.95;4.03;;;;;;;;;;6247977;23;20012;-94
2022/02/07 17:41:15;;;;;;;20.23;3.55;;;;;;;;;;6251240;23;20034;-93
2022/02/07 17:43:54;;;;;;;24.58;3.22;;;;;;;;;;6250349;23;20012;-94
2022/02/07 17:46:28;;;;;;;20.70;3.35;;;;;;;;;;6251205;23;20012;-93
2022/02/07 17:49:09;;;;;;;30.85;3.05;;;;;;;;;;6251009;23;20008;-93
2022/02/07 17:51:38;;;;;;;22.63;3.13;;;;;;;;;;6250682;23;20012;-92
2022/02/07 17:54:14;;;;;;;26.50;2.88;;;;;;;;;;6252106;23;20012;-93
2022/02/07 18:03:42;;;;;;;35.92;3.90;;;;;;;;;;6274874;22;20003;-91
2022/02/07 18:06:26;;;;;;;32.28;3.33;;;;;;;;;;6249727;22;20012;-94
2022/02/07 18:09:01;;;;;;;32.63;4.32;;;;;;;;;;6249778;22;20019;-93
2022/02/07 18:11:29;;;;;;;32.13;3.00;;;;;;;;;;6248691;22;20024;-93
2022/02/07 18:14:02;;;;;;;31.27;4.80;;;;;;;;;;6249633;22;20031;-93
2022/02/07 18:16:34;;;;;;;26.17;3.00;;;;;;;;;;6249963;22;20019;-93
2022/02/07 18:19:03;;;;;;;17.75;3.30;;;;;;;;;;6248977;22;20018;-93
2022/02/07 18:21:38;;;;;;;20.30;2.47;;;;;;;;;;6249231;22;20028;-92
2022/02/07 18:24:11;;;;;;;20.02;2.42;;;;;;;;;;6248518;22;20028;-93
2022/02/07 18:26:40;;;;;;;31.00;3.75;;;;;;;;;;6248982;22;20028;-94
2022/02/07 18:29:07;;;;;;;30.15;4.68;;;;;;;;;;6248709;22;20072;-93
2022/02/07 18:31:41;;;;;;;26.13;5.05;;;;;;;;;;6249381;22;20024;-93
2022/02/07 18:34:26;;;;;;;19.97;2.93;;;;;;;;;;6249534;22;20068;-94
2022/02/07 18:37:10;;;;;;;25.60;3.95;;;;;;;;;;6250372;22;20051;-94
2022/02/07 18:39:55;;;;;;;21.83;3.60;;;;;;;;;;6273749;22;20035;-94
2022/02/07 18:42:34;;;;;;;19.73;2.95;;;;;;;;;;6248724;22;20012;-93
2022/02/07 18:45:07;;;;;;;18.30;2.65;;;;;;;;;;6248358;22;20060;-95
2022/02/07 19:01:19;;;;;;;21.13;3.25;;;;;;;;;;6276022;22;20027;-94
2022/02/07 19:03:59;;;;;;;14.43;2.80;;;;;;;;;;6251321;22;20020;-94
2022/02/07 19:06:41;;;;;;;25.67;3.22;;;;;;;;;;6252038;22;20423;-94
2022/02/07 19:12:55;;;;;;;30.83;3.40;;;;;;;;;;6154816;23;20036;-93
2022/02/07 19:15:25;;;;;;;26.45;3.35;;;;;;;;;;6130656;23;20018;-92
2022/02/07 19:21:46;;;;;;;22.60;3.03;;;;;;;;;;6154505;23;20005;-94
2022/02/07 19:24:40;;;;;;;20.77;2.83;;;;;;;;;;6130894;23;20033;-92
2022/02/07 19:30:33;;;;;;;24.88;2.90;;;;;;;;;;6154334;23;20036;-94
2022/02/07 19:33:13;;;;;;;19.92;2.95;;;;;;;;;;6131468;23;20014;-93
2022/02/07 19:35:44;;;;;;;17.92;2.55;;;;;;;;;;6129900;23;20010;-94
2022/02/07 19:38:14;;;;;;;16.92;3.75;;;;;;;;;;6130146;23;20018;-92
2022/02/07 19:40:47;;;;;;;18.10;2.92;;;;;;;;;;6189578;22;20008;-94
2022/02/07 19:43:25;;;;;;;16.95;2.38;;;;;;;;;;6219133;22;20016;-93
2022/02/07 19:46:06;;;;;;;21.48;2.88;;;;;;;;;;6220928;22;20023;-93
2022/02/07 19:48:35;;;;;;;22.70;2.72;;;;;;;;;;6219970;22;20016;-93
2022/02/07 19:51:05;;;;;;;19.52;2.55;;;;;;;;;;6220264;22;20039;-94
2022/02/07 19:53:46;;;;;;;16.30;2.60;;;;;;;;;;6221316;22;20016;-92
2022/02/07 19:56:20;;;;;;;18.02;2.95;;;;;;;;;;6219093;22;20028;-92
2022/02/07 19:59:01;;;;;;;17.27;3.15;;;;;;;;;;6217566;22;20023;-92
2022/02/07 20:01:41;;;;;;;10.48;1.88;;;;;;;;;;6218383;22;20072;-93
2022/02/07 20:04:21;;;;;;;12.25;2.63;;;;;;;;;;6221262;22;20069;-94
2022/02/07 20:06:59;;;;;;;13.75;2.88;;;;;;;;;;6220352;22;20009;-93
2022/02/07 20:09:28;;;;;;;25.42;2.60;;;;;;;;;;6219479;22;20073;-93
2022/02/07 20:12:06;;;;;;;19.60;2.08;;;;;;;;;;6219347;22;20013;-93
2022/02/07 20:14:41;;;;;;;22.23;2.70;;;;;;;;;;6220446;22;20032;-94
2022/02/07 20:20:36;;;;;;;18.85;2.90;;;;;;;;;;6244476;22;20024;-93
2022/02/07 20:33:34;;;;;;;12.37;2.10;;;;;;;;;;6283094;22;20040;-93
2022/02/07 20:36:13;;;;;;;26.38;3.30;;;;;;;;;;6306184;22;20027;-93
2022/02/07 20:38:41;;;;;;;20.02;3.20;;;;;;;;;;6280078;22;20008;-93
2022/02/07 21:17:21;;;;;;;12.60;2.20;;;;;;;;;;6248034;22;20007;-93
2022/02/07 21:19:51;;;;;;;17.52;2.70;;;;;;;;;;6279881;22;20015;-94
2022/02/07 21:22:31;;;;;;;13.20;2.22;;;;;;;;;;6281436;22;20095;-93
2022/02/07 21:25:12;;;;;;;11.75;2.38;;;;;;;;;;6305482;22;20012;-93
2022/02/07 21:27:42;;;;;;;14.95;2.25;;;;;;;;;;6279712;22;20064;-93
2022/02/07 21:30:10;;;;;;;23.42;3.05;;;;;;;;;;6279003;22;20027;-94
2022/02/07 21:33:20;;;;;;;11.63;2.28;;;;;;;;;;6279397;22;20008;-94
2022/02/07 21:35:51;;;;;;;24.30;3.03;;;;;;;;;;6278934;22;20022;-95
2022/02/07 21:38:19;;;;;;;20.02;2.45;;;;;;;;;;6279293;22;20034;-93
2022/02/07 21:44:10;;;;;;;18.33;3.70;;;;;;;;;;6305192;22;20022;-93
2022/02/07 21:46:40;;;;;;;13.00;2.35;;;;;;;;;;6279376;22;20018;-93
2022/02/07 21:49:09;;;;;;;16.52;2.70;;;;;;;;;;6279428;22;20008;-93
2022/02/07 21:51:36;;;;;;;16.17;2.10;;;;;;;;;;6279325;22;20027;-94
2022/02/07 21:54:04;;;;;;;21.10;2.75;;;;;;;;;;6279415;22;20173;-93
2022/02/07 21:56:31;;;;;;;20.88;2.20;;;;;;;;;;6279626;22;20018;-94
2022/02/07 21:58:59;;;;;;;16.02;3.00;;;;;;;;;;6279527;22;20035;-94
2022/02/07 22:01:25;;;;;;;17.25;2.85;;;;;;;;;;6279221;22;20011;-92
2022/02/07 22:03:52;;;;;;;21.92;2.45;;;;;;;;;;6279209;22;20031;-95
2022/02/07 22:06:19;;;;;;;12.82;2.45;;;;;;;;;;6279341;22;20088;-94
2022/02/07 22:08:49;;;;;;;18.20;2.25;;;;;;;;;;6279162;22;20016;-94
2022/02/07 22:11:32;;;;;;;11.32;1.73;;;;;;;;;;6279614;22;20028;-92
2022/02/07 22:13:59;;;;;;;12.52;1.92;;;;;;;;;;6279060;22;20090;-93
2022/02/07 22:16:33;;;;;;;10.50;2.33;;;;;;;;;;6279143;22;20031;-94
2022/02/07 22:19:00;;;;;;;17.80;2.50;;;;;;;;;;6278978;22;20017;-94
2022/02/07 22:32:00;;;;;;;20.90;1.90;;;;;;;;;;6306923;22;20015;-92
2022/02/07 22:34:35;;;;;;;10.85;2.03;;;;;;;;;;6280960;22;20011;-94
2022/02/07 22:37:04;;;;;;;13.40;3.10;;;;;;;;;;6281574;22;20071;-92
2022/02/07 22:39:32;;;;;;;14.65;4.07;;;;;;;;;;6281135;22;20011;-93
2022/02/07 22:42:06;;;;;;;23.83;2.72;;;;;;;;;;6282342;22;20032;-93
2022/02/07 22:44:33;;;;;;;11.85;2.33;;;;;;;;;;6281178;22;20018;-93
2022/02/07 22:47:01;;;;;;;12.27;1.83;;;;;;;;;;6281134;22;20059;-93
2022/02/07 22:49:28;;;;;;;19.02;2.15;;;;;;;;;;6281202;22;20055;-94
2022/02/07 22:52:09;;;;;;;11.00;2.17;;;;;;;;;;6283874;22;20047;-94
2022/02/07 22:54:37;;;;;;;17.42;2.60;;;;;;;;;;6281390;22;20011;-93
2022/02/07 22:57:04;;;;;;;13.98;2.40;;;;;;;;;;6280979;22;20067;-92
2022/02/07 22:59:32;;;;;;;16.45;3.00;;;;;;;;;;6255782;22;20035;-93
2022/02/07 23:02:00;;;;;;;12.20;2.15;;;;;;;;;;6280889;22;20007;-93
2022/02/07 23:04:28;;;;;;;12.18;2.20;;;;;;;;;;6280953;22;20034;-92
2022/02/07 23:07:13;;;;;;;12.63;2.13;;;;;;;;;;6306670;22;20059;-92
2022/02/07 23:13:20;;;;;;;12.15;2.28;;;;;;;;;;6306941;22;20029;-93
2022/02/07 23:15:55;;;;;;;13.10;2.20;;;;;;;;;;6280769;22;20027;-93
2022/02/07 23:32:57;;;;;;;25.57;2.87;;;;;;;;;;6306517;22;20015;-92
2022/02/07 23:41:47;;;;;;;13.10;2.60;;;;;;;;;;6306170;22;20030;-94
2022/02/07 23:44:15;;;;;;;17.50;2.50;;;;;;;;;;6280662;22;20007;-93
2022/02/07 23:46:47;;;;;;;15.73;2.70;;;;;;;;;;6280547;22;20016;-94
2022/02/07 23:52:02;;;;;;;16.85;2.17;;;;;;;;;;6306138;22;20016;-93
2022/02/07 23:57:44;;;;;;;20.30;4.43;;;;;;;;;;6306319;22;20049;-93
